Birsay, Canada
Current Conditions -  °F | °C
As of 12:00 PM on Thursday 30 Oct 2014 (Local Time) from CYYN Reporting Station
Overcast Overcast  
Wind Chill: 19°   Ceiling: 500
Heat Index: 30°   Visibility: 9mi
Dew Point: 28°   Wind: 15mph
Humidity: 93%   Direction: 120°ESE
Pressure: 30.39"   Gusts: 23mph
Location:  51.1°N, 106.98°W
Report Text: CYYN 301800Z AUTO 12013G20KT 9SM OVC005 M01/M02 A3039 RMK SLP325
Loading
Personal Weather Stations






























Interactive Weather Map
Tropical Storm Tracking
New forecast layout! Learn more

10-Day Weather Forecast

Advertisements
Track Severe Weather on mobile